.
WxDataArchive / Data Records for 2012-06-22
2012-06-21 June 2012 2012-06-23

Data Records for Friday, 22 June 2012

Time	Temp	Chill	HIndex	Humid	Dewpt	 Wind 	HiWind	WindDir	Rain 	Barom 
-----	----	-----	------	-----	-----	------	------	-------	-----	----- 
00:00	67.3	67.3	67.3	82	61.6	0	0	---	0.00	29.913 
00:05	67.1	67.1	67.1	82	61.4	0	0	---	0.00	29.913 
00:10	66.8	66.8	66.8	83	61.5	0	0	---	0.00	29.913 
00:15	66.4	66.4	66.4	83	61.1	0	0	---	0.00	29.915 
00:20	66.3	66.3	66.3	83	61.0	0	0	---	0.00	29.915 
00:25	66.0	66.0	66.0	84	61.0	0	0	---	0.00	29.915 
00:30	65.6	65.6	65.6	84	60.6	0	0	---	0.00	29.921 
00:35	65.3	65.3	65.3	85	60.7	0	0	---	0.00	29.921 
00:40	65.2	65.2	65.2	86	60.9	0	0	---	0.00	29.921 
00:45	64.8	64.8	64.8	86	60.5	0	0	---	0.00	29.925 
00:50	64.7	64.7	64.7	87	60.7	0	0	---	0.00	29.925 
00:55	64.5	64.5	64.5	88	60.9	0	0	---	0.00	29.925 
01:00	64.3	64.3	64.3	88	60.7	0	0	---	0.00	29.924 
01:05	64.2	64.2	64.2	88	60.6	0	0	---	0.00	29.924 
01:10	64.0	64.0	64.0	88	60.4	0	0	---	0.00	29.924 
01:15	63.9	63.9	63.9	89	60.6	0	0	---	0.00	29.922 
01:20	63.7	63.7	63.7	89	60.4	0	0	---	0.00	29.922 
01:25	63.5	63.5	63.5	89	60.2	0	0	---	0.00	29.922 
01:30	63.4	63.4	63.4	89	60.1	0	0	---	0.00	29.921 
01:35	63.4	63.4	63.4	90	60.4	0	0	---	0.00	29.921 
01:40	63.2	63.2	63.2	90	60.2	0	0	---	0.00	29.921 
01:45	63.2	63.2	63.2	90	60.2	0	0	---	0.00	29.919 
01:50	63.1	63.1	63.1	90	60.1	0	0	---	0.00	29.919 
01:55	62.9	62.9	62.9	90	59.9	0	0	---	0.00	29.919 
02:00	62.7	62.7	62.7	90	59.7	0	0	---	0.00	29.919 
02:05	62.6	62.6	62.6	90	59.6	0	0	---	0.00	29.919 
02:10	62.4	62.4	62.4	90	59.4	0	0	---	0.00	29.919 
02:15	62.4	62.4	62.4	90	59.4	0	0	---	0.00	29.917 
02:20	62.3	62.3	62.3	90	59.3	0	0	---	0.00	29.917 
02:25	62.1	62.1	62.1	91	59.4	0	0	---	0.00	29.917 
02:30	62.1	62.1	62.1	91	59.4	0	0	---	0.00	29.912 
02:35	62.0	62.0	62.0	91	59.3	0	0	---	0.00	29.912 
02:40	62.0	62.0	62.0	91	59.3	0	0	---	0.00	29.912 
02:45	61.8	61.8	61.8	91	59.1	0	0	---	0.00	29.916 
02:50	61.6	61.6	61.6	91	58.9	0	0	---	0.00	29.916 
02:55	61.6	61.6	61.6	92	59.2	0	0	---	0.00	29.916 
03:00	61.6	61.6	61.6	92	59.2	0	0	---	0.00	29.914 
03:05	61.8	61.8	61.8	92	59.4	0	0	---	0.00	29.914 
03:10	62.0	62.0	62.0	92	59.6	0	0	---	0.00	29.914 
03:15	62.3	62.3	62.3	92	59.9	0	0	---	0.00	29.915 
03:20	62.4	62.4	62.4	92	60.0	0	0	---	0.00	29.915 
03:25	62.4	62.4	62.4	92	60.0	0	0	---	0.00	29.915 
03:30	62.4	62.4	62.4	92	60.0	0	0	---	0.00	29.914 
03:35	62.4	62.4	62.4	92	60.0	0	0	---	0.00	29.914 
03:40	62.4	62.4	62.4	92	60.0	0	0	---	0.00	29.914 
03:45	62.4	62.4	62.4	92	60.0	0	0	---	0.00	29.913 
03:50	62.4	62.4	62.4	92	60.0	0	0	---	0.00	29.913 
03:55	62.4	62.4	62.4	92	60.0	0	0	---	0.00	29.913 
04:00	62.4	62.4	62.4	92	60.0	0	0	---	0.00	29.914 
04:05	62.4	62.4	62.4	92	60.0	0	0	---	0.00	29.914 
04:10	62.4	62.4	62.4	92	60.0	0	0	---	0.00	29.914 
04:15	62.4	62.4	62.4	92	60.0	0	0	---	0.00	29.916 
04:20	62.4	62.4	62.4	92	60.0	0	0	---	0.00	29.916 
04:25	62.3	62.3	62.3	92	59.9	0	0	---	0.00	29.916 
04:30	62.3	62.3	62.3	92	59.9	0	0	---	0.00	29.916 
04:35	62.1	62.1	62.1	92	59.7	0	0	---	0.00	29.916 
04:40	62.1	62.1	62.1	93	60.0	0	0	---	0.00	29.916 
04:45	62.1	62.1	62.1	93	60.0	0	0	---	0.00	29.917 
04:50	62.1	62.1	62.1	93	60.0	0	0	---	0.00	29.917 
04:55	62.1	62.1	62.1	93	60.0	0	0	---	0.00	29.917 
05:00	62.1	62.1	62.1	93	60.0	0	0	---	0.00	29.918 
05:05	62.1	62.1	62.1	93	60.0	0	0	---	0.00	29.918 
05:10	62.1	62.1	62.1	93	60.0	0	0	---	0.00	29.918 
05:15	62.1	62.1	62.1	93	60.0	0	0	---	0.00	29.930 
05:20	62.1	62.1	62.1	93	60.0	0	0	---	0.00	29.930 
05:25	62.1	62.1	62.1	93	60.0	0	0	---	0.00	29.930 
05:30	62.1	62.1	62.1	93	60.0	0	0	---	0.00	29.932 
05:35	62.1	62.1	62.1	93	60.0	0	0	---	0.00	29.932 
05:40	62.1	62.1	62.1	93	60.0	0	0	---	0.00	29.932 
05:45	62.1	62.1	62.1	93	60.0	0	0	---	0.00	29.935 
05:50	62.1	62.1	62.1	93	60.0	0	0	---	0.00	29.935 
05:55	62.0	62.0	62.0	93	59.9	0	0	---	0.00	29.935 
06:00	62.0	62.0	62.0	93	59.9	0	0	---	0.00	29.933 
06:05	61.8	61.8	61.8	93	59.8	0	0	---	0.00	29.933 
06:10	61.6	61.6	61.6	93	59.6	0	0	---	0.00	29.933 
06:15	61.5	61.5	61.5	93	59.5	0	0	---	0.00	29.934 
06:20	61.5	61.5	61.5	93	59.5	0	0	---	0.00	29.934 
06:25	61.3	61.3	61.3	93	59.3	0	0	---	0.00	29.934 
06:30	61.3	61.3	61.3	94	59.6	0	0	---	0.00	29.941 
06:35	61.3	61.3	61.3	94	59.6	0	0	---	0.00	29.941 
06:40	61.3	61.3	61.3	94	59.6	0	0	---	0.00	29.941 
06:45	61.3	61.3	61.3	94	59.6	0	0	---	0.00	29.944 
06:50	61.3	61.3	61.3	94	59.6	0	0	---	0.00	29.944 
06:55	61.5	61.5	61.5	94	59.8	0	0	---	0.00	29.944 
07:00	61.6	61.6	61.6	94	59.9	0	0	---	0.00	29.949 
07:05	62.0	62.0	62.0	94	60.2	0	0	---	0.00	29.949 
07:10	62.1	62.1	62.1	94	60.3	0	0	---	0.00	29.949 
07:15	62.3	62.3	62.3	94	60.5	0	0	---	0.00	29.956 
07:20	62.6	62.6	62.6	95	61.1	0	0	---	0.00	29.956 
07:25	63.1	63.1	63.1	95	61.6	0	0	---	0.00	29.956 
07:30	63.7	63.7	63.7	95	62.2	0	0	---	0.00	29.959 
07:35	64.0	64.0	64.0	95	62.5	0	1	292	0.00	29.959 
07:40	64.3	64.3	64.3	95	62.8	0	1	292	0.00	29.959 
07:45	64.8	64.8	64.8	94	63.0	0	0	---	0.00	29.959 
07:50	65.2	65.2	65.2	94	63.4	1	2	292	0.00	29.959 
07:55	65.3	65.3	65.3	94	63.5	1	2	292	0.00	29.959 
08:00	65.5	65.5	65.5	94	63.7	0	2	292	0.00	29.960 
08:05	65.6	65.6	65.6	94	63.8	0	2	292	0.00	29.960 
08:10	65.6	65.6	65.6	93	63.5	1	2	292	0.00	29.960 
08:15	65.6	65.6	65.6	93	63.5	0	1	292	0.00	29.959 
08:20	65.8	65.8	65.8	93	63.7	0	2	292	0.00	29.959 
08:25	66.0	66.0	66.0	94	64.2	0	2	292	0.00	29.959 
08:30	66.3	66.3	66.3	93	64.2	0	2	292	0.00	29.959 
08:35	66.6	66.6	66.6	93	64.5	0	2	292	0.00	29.959 
08:40	66.8	66.8	66.8	92	64.4	0	1	292	0.00	29.959 
08:45	66.9	66.9	66.9	92	64.5	0	2	292	0.00	29.958 
08:50	67.4	67.4	67.4	92	65.0	0	2	292	0.00	29.958 
08:55	68.1	68.1	68.1	92	65.7	0	1	292	0.00	29.958 
09:00	68.4	68.4	68.4	90	65.3	0	1	292	0.00	29.960 
09:05	68.8	68.8	68.8	89	65.4	0	1	292	0.00	29.960 
09:10	69.1	69.1	69.1	88	65.4	0	2	338	0.00	29.960 
09:15	69.4	69.4	69.4	86	65.0	0	1	338	0.00	29.962 
09:20	69.9	69.9	69.9	86	65.5	0	2	338	0.00	29.962 
09:25	70.8	70.8	70.8	84	65.7	0	1	338	0.00	29.962 
09:30	71.1	71.1	71.1	83	65.7	0	2	338	0.00	29.960 
09:35	71.5	71.5	71.5	81	65.4	1	2	338	0.00	29.960 
09:40	72.3	72.3	72.3	80	65.8	0	1	338	0.00	29.960 
09:45	72.5	72.5	72.5	76	64.5	0	1	338	0.00	29.962 
09:50	73.3	73.3	73.3	73	64.1	0	2	338	0.00	29.962 
09:55	73.5	73.5	73.5	71	63.5	0	1	338	0.00	29.962 
10:00	74.0	74.0	74.0	72	64.4	0	0	---	0.00	29.960 
10:05	74.7	74.7	74.7	70	64.2	0	2	338	0.00	29.960 
10:10	75.4	75.4	77.2	68	64.1	1	4	112	0.00	29.960 
10:15	76.0	76.0	77.8	66	63.8	1	3	112	0.00	29.956 
10:20	76.5	76.5	78.3	65	63.8	0	2	112	0.00	29.956 
10:25	76.8	76.8	78.6	65	64.1	0	3	112	0.00	29.956 
10:30	77.4	77.4	79.2	62	63.3	1	3	112	0.00	29.955 
10:35	77.6	77.6	79.4	62	63.5	0	2	112	0.00	29.955 
10:40	77.7	77.7	79.4	62	63.6	2	4	112	0.00	29.955 
10:45	77.7	77.7	79.4	60	62.7	1	3	112	0.00	29.956 
10:50	77.9	77.9	79.6	60	62.9	1	4	112	0.00	29.956 
10:55	77.9	77.9	79.5	59	62.4	1	4	112	0.00	29.956 
11:00	77.9	77.9	79.5	59	62.4	0	2	112	0.00	29.952 
11:05	78.1	78.1	79.6	57	61.6	1	4	112	0.00	29.952 
11:10	78.3	78.3	79.9	58	62.3	1	4	112	0.00	29.952 
11:15	78.3	78.3	79.8	56	61.3	0	3	112	0.00	29.954 
11:20	78.1	78.1	79.6	57	61.6	0	1	112	0.00	29.954 
11:25	78.3	78.3	79.9	58	62.3	0	1	112	0.00	29.954 
11:30	79.0	79.0	80.3	54	60.9	1	3	112	0.00	29.955 
11:35	79.0	79.0	80.2	53	60.4	2	4	112	0.00	29.955 
11:40	79.2	79.2	80.4	53	60.6	2	4	112	0.00	29.955 
11:45	79.4	79.4	80.5	53	60.8	1	3	112	0.00	29.954 
11:50	79.6	79.6	80.6	52	60.4	2	4	112	0.00	29.954 
11:55	80.5	80.5	81.2	49	59.6	1	2	112	0.00	29.954 
12:00	81.1	81.1	82.2	53	62.3	1	2	112	0.00	29.954 
12:05	80.5	80.5	81.6	53	61.8	1	2	112	0.00	29.954 
12:10	79.8	79.8	81.0	54	61.7	0	1	112	0.00	29.954 
12:15	79.2	79.2	80.4	53	60.6	0	1	112	0.00	29.954 
12:20	78.8	78.8	79.9	52	59.7	1	3	112	0.00	29.954 
12:25	78.6	78.6	79.7	51	58.9	1	3	112	0.00	29.954 
12:30	78.3	78.3	79.6	53	59.7	0	2	112	0.00	29.954 
12:35	78.3	78.3	79.7	54	60.3	0	0	---	0.00	29.954 
12:40	78.3	78.3	79.7	54	60.3	0	2	112	0.00	29.954 
12:45	78.8	78.8	79.9	52	59.7	1	3	112	0.00	29.952 
12:50	79.9	79.9	80.7	50	59.6	1	4	112	0.00	29.952 
12:55	81.2	81.2	81.9	50	60.8	1	3	112	0.00	29.952 
13:00	81.8	81.8	81.6	43	57.1	1	3	112	0.00	29.944 
13:05	82.4	82.4	82.2	43	57.6	0	2	112	0.00	29.944 
13:10	82.6	82.6	82.0	40	55.8	2	4	112	0.00	29.944 
13:15	82.8	82.8	82.3	41	56.7	2	4	90	0.00	29.937 
13:20	82.8	82.8	82.9	45	59.3	1	3	270	0.00	29.937 
13:25	82.8	82.8	82.6	43	58.0	1	2	270	0.00	29.937 
13:30	82.6	82.6	82.2	42	57.2	1	4	270	0.00	29.939 
13:35	82.2	82.2	81.7	41	56.1	2	5	270	0.00	29.939 
13:40	81.8	81.8	81.6	43	57.1	1	4	112	0.00	29.939 
13:45	82.0	82.0	81.3	39	54.6	1	4	112	0.00	29.938 
13:50	81.8	81.8	81.3	40	55.1	1	3	112	0.00	29.938 
13:55	82.0	82.0	81.2	38	53.9	1	4	292	0.00	29.938 
14:00	81.6	81.6	80.6	35	51.3	0	3	292	0.00	29.939 
14:05	82.4	82.4	81.6	38	54.2	1	3	292	0.00	29.939 
14:10	83.4	83.4	81.9	34	52.1	1	3	292	0.00	29.939 
14:15	84.0	84.0	82.3	33	51.8	1	3	292	0.00	29.935 
14:20	84.5	84.5	82.6	32	51.4	0	1	292	0.00	29.935 
14:25	85.1	85.1	83.1	31	51.0	1	4	292	0.00	29.935 
14:30	84.7	84.7	82.4	28	48.0	3	5	270	0.00	29.935 
14:35	84.7	84.7	82.7	31	50.7	2	4	270	0.00	29.935 
14:40	84.7	84.7	82.6	30	49.8	2	5	338	0.00	29.935 
14:45	84.9	84.9	82.7	29	49.1	1	4	338	0.00	29.930 
14:50	84.9	84.9	82.7	29	49.1	2	5	270	0.00	29.930 
14:55	84.5	84.5	82.8	33	52.2	1	4	270	0.00	29.930 
15:00	84.7	84.7	82.4	28	48.0	1	4	270	0.00	29.927 
15:05	84.7	84.7	82.3	27	47.0	2	4	270	0.00	29.927 
15:10	84.3	84.3	82.0	27	46.6	2	4	292	0.00	29.927 
15:15	83.4	83.4	81.4	28	46.8	1	3	292	0.00	29.923 
15:20	82.6	82.6	80.8	28	46.2	2	5	292	0.00	29.923 
15:25	82.2	82.2	80.6	30	47.7	0	1	292	0.00	29.923 
15:30	83.0	83.0	81.1	29	47.4	1	2	292	0.00	29.919 
15:35	83.8	83.8	81.7	29	48.1	2	5	292	0.00	29.919 
15:40	84.5	84.5	82.1	27	46.8	1	3	315	0.00	29.919 
15:45	84.5	84.5	82.1	27	46.8	3	6	270	0.00	29.918 
15:50	84.3	84.3	82.0	27	46.6	2	4	315	0.00	29.918 
15:55	84.5	84.5	82.0	26	45.8	2	4	315	0.00	29.918 
16:00	84.5	84.5	82.0	25	44.8	2	4	292	0.00	29.913 
16:05	84.5	84.5	82.1	27	46.8	2	5	292	0.00	29.913 
16:10	83.8	83.8	81.6	27	46.2	3	5	292	0.00	29.913 
16:15	83.0	83.0	81.0	27	45.5	1	4	315	0.00	29.914 
16:20	82.8	82.8	80.9	28	46.3	0	2	315	0.00	29.914 
16:25	82.4	82.4	80.7	29	46.9	0	1	315	0.00	29.914 
16:30	82.2	82.2	80.5	29	46.8	1	3	315	0.00	29.908 
16:35	83.2	83.2	81.2	28	46.7	2	6	270	0.00	29.908 
16:40	83.6	83.6	81.5	28	47.0	2	5	292	0.00	29.908 
16:45	83.0	83.0	81.0	28	46.5	2	4	292	0.00	29.907 
16:50	82.4	82.4	80.8	30	47.8	0	2	292	0.00	29.907 
16:55	82.4	82.4	80.9	32	49.5	0	2	292	0.00	29.907 
17:00	83.2	83.2	81.2	28	46.7	2	4	292	0.00	29.907 
17:05	82.6	82.6	80.7	27	45.2	1	4	315	0.00	29.907 
17:10	82.0	82.0	80.5	30	47.5	1	3	315	0.00	29.907 
17:15	81.8	81.8	80.3	29	46.4	0	2	315	0.00	29.906 
17:20	83.0	83.0	81.1	29	47.4	1	3	315	0.00	29.906 
17:25	83.6	83.6	81.7	30	48.9	1	3	315	0.00	29.906 
17:30	83.6	83.6	81.5	28	47.0	1	5	315	0.00	29.905 
17:35	83.4	83.4	81.3	27	45.9	2	4	315	0.00	29.905 
17:40	83.4	83.4	81.3	27	45.9	1	3	338	0.00	29.905 
17:45	83.2	83.2	81.3	29	47.6	1	4	0	0.00	29.905 
17:50	83.6	83.6	81.7	30	48.9	1	2	292	0.00	29.905 
17:55	83.6	83.6	81.3	26	45.1	2	4	270	0.00	29.905 
18:00	83.4	83.4	81.3	27	45.9	1	4	270	0.00	29.904 
18:05	83.2	83.2	81.2	28	46.7	1	3	270	0.00	29.904 
18:10	83.2	83.2	81.0	26	44.7	1	4	270	0.00	29.904 
18:15	83.0	83.0	80.8	25	43.5	2	4	270	0.00	29.903 
18:20	82.8	82.8	80.9	28	46.3	1	3	292	0.00	29.903 
18:25	82.0	82.0	80.3	27	44.7	0	2	315	0.00	29.903 
18:30	82.0	82.0	80.3	27	44.7	1	3	315	0.00	29.901 
18:35	82.4	82.4	80.5	27	45.0	1	4	315	0.00	29.901 
18:40	82.2	82.2	80.4	27	44.9	1	3	338	0.00	29.901 
18:45	82.0	82.0	80.3	28	45.7	0	2	338	0.00	29.903 
18:50	81.2	81.2	79.9	30	46.8	0	2	338	0.00	29.903 
18:55	80.9	80.9	79.7	29	45.6	0	2	338	0.00	29.903 
19:00	80.7	80.7	79.7	31	47.2	0	1	338	0.00	29.908 
19:05	80.9	80.9	79.8	31	47.4	1	3	338	0.00	29.908 
19:10	80.9	80.9	79.8	31	47.4	1	3	338	0.00	29.908 
19:15	81.2	81.2	80.1	32	48.5	0	2	0	0.00	29.902 
19:20	81.4	81.4	80.1	31	47.8	1	4	0	0.00	29.902 
19:25	81.4	81.4	80.2	32	48.7	1	4	292	0.00	29.902 
19:30	81.1	81.1	80.0	32	48.4	0	3	292	0.00	29.903 
19:35	80.7	80.7	79.8	33	48.9	1	3	292	0.00	29.903 
19:40	80.5	80.5	79.8	34	49.5	0	2	292	0.00	29.903 
19:45	79.9	79.9	79.5	35	49.8	0	2	292	0.00	29.906 
19:50	79.2	79.2	79.1	36	49.9	1	2	292	0.00	29.906 
19:55	78.6	78.6	78.9	37	50.1	0	4	292	0.00	29.906 
20:00	78.5	78.5	78.9	39	51.5	0	3	292	0.00	29.909 
20:05	78.5	78.5	78.9	39	51.5	0	2	292	0.00	29.909 
20:10	78.5	78.5	78.9	39	51.5	0	2	292	0.00	29.909 
20:15	78.6	78.6	79.0	40	52.2	0	1	292	0.00	29.908 
20:20	78.6	78.6	79.0	39	51.5	0	2	292	0.00	29.908 
20:25	78.6	78.6	79.0	40	52.2	0	2	292	0.00	29.908 
20:30	78.5	78.5	79.0	40	52.1	1	3	292	0.00	29.911 
20:35	78.3	78.3	78.9	40	52.0	0	3	292	0.00	29.911 
20:40	77.9	77.9	78.7	40	51.6	0	2	292	0.00	29.911 
20:45	77.7	77.7	78.6	41	52.1	0	1	292	0.00	29.917 
20:50	77.4	77.4	78.5	41	51.8	0	1	292	0.00	29.917 
20:55	77.2	77.2	78.4	42	52.3	0	2	292	0.00	29.917 
21:00	77.0	77.0	78.3	42	52.1	0	3	292	0.00	29.921 
21:05	76.7	76.7	78.2	42	51.9	0	1	292	0.00	29.921 
21:10	76.5	76.5	78.1	43	52.3	0	1	292	0.00	29.921 
21:15	76.1	76.1	78.0	44	52.6	0	0	---	0.00	29.917 
21:20	75.8	75.8	77.9	44	52.3	0	0	---	0.00	29.917 
21:25	75.3	75.3	77.7	45	52.5	0	0	---	0.00	29.917 
21:30	74.9	74.9	74.9	45	52.1	0	0	---	0.00	29.919 
21:35	74.6	74.6	74.6	46	52.4	0	0	---	0.00	29.919 
21:40	74.2	74.2	74.2	47	52.7	0	0	---	0.00	29.919 
21:45	73.9	73.9	73.9	47	52.4	0	0	---	0.00	29.930 
21:50	73.5	73.5	73.5	48	52.6	0	0	---	0.00	29.930 
21:55	73.2	73.2	73.2	49	52.9	0	0	---	0.00	29.930 
22:00	73.0	73.0	73.0	49	52.7	0	1	292	0.00	29.935 
22:05	73.0	73.0	73.0	48	52.1	0	1	292	0.00	29.935 
22:10	72.8	72.8	72.8	48	52.0	0	1	292	0.00	29.935 
22:15	72.8	72.8	72.8	49	52.5	0	0	---	0.00	29.939 
22:20	72.5	72.5	72.5	49	52.2	0	1	292	0.00	29.939 
22:25	72.3	72.3	72.3	49	52.1	0	1	292	0.00	29.939 
22:30	72.3	72.3	72.3	48	51.5	0	2	292	0.00	29.947 
22:35	72.3	72.3	72.3	48	51.5	0	1	292	0.00	29.947 
22:40	72.1	72.1	72.1	49	51.9	0	0	---	0.00	29.947 
22:45	71.8	71.8	71.8	49	51.6	0	0	---	0.00	29.949 
22:50	71.5	71.5	71.5	50	51.9	0	0	---	0.00	29.949 
22:55	71.1	71.1	71.1	50	51.5	0	0	---	0.00	29.949 
23:00	70.6	70.6	70.6	51	51.6	0	0	---	0.00	29.953 
23:05	70.3	70.3	70.3	51	51.3	0	0	---	0.00	29.953 
23:10	69.9	69.9	69.9	52	51.5	0	0	---	0.00	29.953 
23:15	69.6	69.6	69.6	53	51.7	0	0	---	0.00	29.955 
23:20	69.4	69.4	69.4	54	52.0	0	0	---	0.00	29.955 
23:25	69.1	69.1	69.1	54	51.7	0	0	---	0.00	29.955 
23:30	68.9	68.9	68.9	54	51.6	0	0	---	0.00	29.955 
23:35	68.6	68.6	68.6	56	52.3	0	0	---	0.00	29.955 
23:40	68.3	68.3	68.3	55	51.5	0	0	---	0.00	29.955 
23:45	68.3	68.3	68.3	55	51.5	0	0	---	0.00	29.960 
23:50	68.3	68.3	68.3	55	51.5	0	0	---	0.00	29.960 
23:55	67.9	67.9	67.9	56	51.6	0	0	---	0.00	29.960 

CoCoRaHS
IN-AL-39
A2 Web Hosting
Creative Commons License
GoDaddy
search engine by freefind advanced

loaded 2018-11-17 14:08:54 • last modified 2010-11-18 10:43:29
Privacy PolicyDisclaimer
• wx.awcolley.com is powered by PmWiki v.2002016 •
• all content (unless otherwise noted) © 2018 A W Colley